Portada
METAR-TAF:

METAR-TAF

Aeropuertos :

Aeropuerto Internacional de Nuakchot

Nuakchot, Mauritania

latitud: 18-18-36N, longitud: 015-58-11W, altitud: 3 m

Observación

El informe se hizo hace 45 minutos, a las 21:30 UTC
Viento 19 kt del noroeste
Temperatura 21°C
Humedad 83%
Presión 1011 hPa
Visibilidad: 6000 m

METAR: GQNO 192130Z 32019KT 6000 NSC 21/18 Q1011 NOSIG

Hora: 22:15 (22:15 UTC)

Pronóstico

El informe se hizo hace 5 horas y 15 minutos, a las 17:00 UTC
Pronóstico válido del 19 a las 18 UTC al 20 a las 24 UTC
Viento 20 kt del noroeste
Visibilidad: 7000 m
Evolucionando progresivamente
del 19 a las 20 UTC al 19 a las 22 UTC
Viento 10 kt del norte-noroeste

TAF: GQNO 191700Z 1918/2024 32020KT 7000 NSC BECMG 1920/1922 33010KT

Observaciones y pronósticos meteorológicos de más de 4000 aeropuertos (mensajes METAR y TAF).

Los puntos amarillos y rojos representan las estaciones disponibles.

Ponga el ratón en el punto deseado para ver el nombre de la estación.

Haga clic para ver las observaciones y los pronósticos meteorológicos.

Para cambiar el mapa : haga clic en los botones verdes con una cruz de color negro para hacer un zoom, en el botón verde con un guión para alejar o en las flechas verdes para mapas adyacentes.


METAR-TAF: